createdAt,value
2018-02-15T00:00:13.672Z,4.10
2018-02-15T00:01:14.787Z,4.10
2018-02-15T00:02:15.889Z,4.10
2018-02-15T00:03:17.726Z,4.00
2018-02-15T00:04:19.568Z,4.10
2018-02-15T00:05:20.692Z,4.10
2018-02-15T00:06:21.788Z,4.10
2018-02-15T00:07:22.878Z,4.10
2018-02-15T00:08:23.960Z,4.00
2018-02-15T00:09:25.057Z,4.00
2018-02-15T00:10:26.901Z,4.00
2018-02-15T00:11:28.724Z,4.00
2018-02-15T00:12:29.837Z,4.00
2018-02-15T00:13:30.943Z,4.10
2018-02-15T00:14:32.039Z,4.10
2018-02-15T00:15:33.153Z,4.10
2018-02-15T00:16:34.245Z,4.10
2018-02-15T00:17:35.352Z,4.10
2018-02-15T00:18:37.168Z,4.00
2018-02-15T00:19:38.290Z,4.00
2018-02-15T00:20:39.376Z,4.00
2018-02-15T00:21:40.455Z,4.00
2018-02-15T00:22:41.541Z,4.00
2018-02-15T00:23:42.623Z,4.00
2018-02-15T00:24:43.715Z,3.90
2018-02-15T00:25:45.542Z,3.90
2018-02-15T00:26:46.652Z,3.90
2018-02-15T00:27:47.740Z,4.00
2018-02-15T00:28:48.811Z,4.00
2018-02-15T00:29:49.907Z,4.00
2018-02-15T00:30:50.996Z,4.00
2018-02-15T00:31:52.088Z,4.00
2018-02-15T00:32:53.209Z,4.00
2018-02-15T00:33:54.291Z,4.00
2018-02-15T00:34:55.409Z,4.00
2018-02-15T00:35:56.488Z,4.00
2018-02-15T00:36:58.318Z,3.90
2018-02-15T00:37:59.426Z,3.90
2018-02-15T00:39:00.513Z,3.90
2018-02-15T00:40:01.613Z,3.90
2018-02-15T00:41:02.688Z,3.90
2018-02-15T00:42:03.785Z,3.90
2018-02-15T00:43:05.640Z,3.80
2018-02-15T00:44:07.456Z,3.80
2018-02-15T00:45:08.539Z,3.80
2018-02-15T00:46:09.635Z,3.80
2018-02-15T00:47:10.740Z,3.80
2018-02-15T00:48:11.895Z,3.80
2018-02-15T00:49:13.005Z,3.80
2018-02-15T00:50:14.819Z,3.80
2018-02-15T00:51:15.895Z,3.80
2018-02-15T00:52:16.976Z,3.90
2018-02-15T00:53:18.802Z,3.90
2018-02-15T00:54:19.871Z,3.90
2018-02-15T00:55:20.980Z,3.90
2018-02-15T00:56:22.064Z,4.00
2018-02-15T00:57:23.159Z,4.00
2018-02-15T00:58:24.251Z,4.00
2018-02-15T00:59:25.339Z,4.00
2018-02-15T01:00:26.439Z,4.00
2018-02-15T01:01:28.268Z,4.10
2018-02-15T01:02:29.380Z,4.10
2018-02-15T01:03:30.490Z,4.10
2018-02-15T01:04:31.595Z,4.10
2018-02-15T01:05:33.443Z,4.20
2018-02-15T01:06:34.591Z,4.20
2018-02-15T01:07:35.687Z,4.20
2018-02-15T01:08:36.778Z,4.10
2018-02-15T01:09:38.867Z,4.10
2018-02-15T01:10:39.927Z,4.10
2018-02-15T01:11:41.765Z,4.00
2018-02-15T01:12:42.855Z,4.00
2018-02-15T01:13:43.948Z,4.00
2018-02-15T01:14:45.788Z,4.00
2018-02-15T01:15:46.880Z,4.00
2018-02-15T01:16:47.971Z,4.00
2018-02-15T01:17:49.061Z,4.00
2018-02-15T01:18:50.151Z,4.10
2018-02-15T01:19:51.227Z,4.00
2018-02-15T01:20:52.311Z,4.00
2018-02-15T01:21:53.408Z,4.00
2018-02-15T01:22:54.511Z,4.00
2018-02-15T01:23:55.595Z,4.10
2018-02-15T01:24:56.864Z,4.00
2018-02-15T01:25:57.967Z,4.00
2018-02-15T01:26:59.057Z,4.20
2018-02-15T01:28:00.151Z,4.00
2018-02-15T01:29:01.247Z,4.00
2018-02-15T01:30:03.089Z,4.10
2018-02-15T01:31:04.182Z,3.90
2018-02-15T01:32:05.264Z,4.00
2018-02-15T01:33:07.116Z,4.10
2018-02-15T01:34:08.216Z,4.10
2018-02-15T01:35:09.320Z,4.20
2018-02-15T01:36:10.416Z,4.20
2018-02-15T01:37:12.256Z,4.20
2018-02-15T01:38:14.125Z,4.20
2018-02-15T01:39:15.222Z,4.20
2018-02-15T01:40:16.343Z,4.20
2018-02-15T01:41:17.440Z,4.10
2018-02-15T01:42:18.523Z,4.10
2018-02-15T01:43:19.604Z,4.20
2018-02-15T01:44:20.721Z,4.20
2018-02-15T01:45:21.831Z,4.20
2018-02-15T01:46:22.900Z,4.20
2018-02-15T01:47:23.977Z,4.20
2018-02-15T01:48:25.076Z,4.20
2018-02-15T01:49:26.216Z,4.20
2018-02-15T01:50:27.319Z,4.20
2018-02-15T01:51:28.416Z,4.30
2018-02-15T01:52:29.536Z,4.10
2018-02-15T01:53:30.622Z,4.10
2018-02-15T01:54:31.719Z,4.10
2018-02-15T01:55:32.864Z,4.00
2018-02-15T01:56:34.722Z,4.00
2018-02-15T01:57:36.560Z,4.00
2018-02-15T01:58:37.671Z,4.00
2018-02-15T01:59:38.764Z,4.00
2018-02-15T02:00:39.880Z,4.00
2018-02-15T02:01:40.985Z,4.00
2018-02-15T02:02:42.099Z,4.00
2018-02-15T02:03:49.294Z,4.00
2018-02-15T02:04:50.400Z,4.00
2018-02-15T02:05:51.493Z,4.00
2018-02-15T02:06:52.547Z,4.00
2018-02-15T02:07:53.653Z,4.00
2018-02-15T02:08:54.776Z,4.00
2018-02-15T02:09:56.617Z,4.10
2018-02-15T02:10:57.732Z,4.10
2018-02-15T02:11:58.832Z,4.10
2018-02-15T02:12:59.945Z,4.20
2018-02-15T02:14:01.073Z,4.10
2018-02-15T02:15:02.185Z,4.10
2018-02-15T02:16:04.037Z,4.20
2018-02-15T02:17:05.175Z,4.10
2018-02-15T02:18:06.283Z,4.00
2018-02-15T02:19:07.363Z,4.10
2018-02-15T02:20:08.472Z,4.10
2018-02-15T02:21:09.568Z,4.10
2018-02-15T02:22:10.660Z,4.10
2018-02-15T02:23:11.768Z,4.10
2018-02-15T02:24:13.628Z,4.10
2018-02-15T02:25:14.756Z,4.00
2018-02-15T02:26:15.847Z,4.00
2018-02-15T02:27:16.946Z,4.00
2018-02-15T02:28:18.050Z,3.90
2018-02-15T02:29:19.878Z,3.80
2018-02-15T02:30:21.028Z,3.80
2018-02-15T02:31:22.120Z,3.90
2018-02-15T02:32:23.207Z,3.80
2018-02-15T02:33:25.046Z,3.80
2018-02-15T02:34:26.153Z,3.80
2018-02-15T02:35:27.251Z,3.80
2018-02-15T02:36:28.356Z,3.80
2018-02-15T02:37:29.474Z,3.70
2018-02-15T02:38:30.576Z,3.80
2018-02-15T02:39:31.681Z,3.80
2018-02-15T02:40:32.772Z,3.80
2018-02-15T02:41:33.890Z,3.80
2018-02-15T02:42:35.036Z,3.80
2018-02-15T02:43:36.136Z,3.80
2018-02-15T02:44:37.222Z,3.80
2018-02-15T02:45:38.325Z,3.80
2018-02-15T02:46:39.492Z,3.80
2018-02-15T02:47:40.617Z,3.90
2018-02-15T02:48:41.700Z,3.90
2018-02-15T02:49:42.814Z,3.90
2018-02-15T02:50:43.948Z,3.90
2018-02-15T02:51:45.051Z,4.00
2018-02-15T02:52:46.150Z,4.00
2018-02-15T02:53:47.299Z,4.00
2018-02-15T02:54:49.242Z,4.10
2018-02-15T02:55:50.451Z,4.00
2018-02-15T02:56:51.609Z,4.10
2018-02-15T02:57:52.724Z,4.10
2018-02-15T02:58:53.850Z,4.10
2018-02-15T02:59:54.948Z,4.00
2018-02-15T03:00:56.061Z,4.00
2018-02-15T03:01:57.918Z,4.00
2018-02-15T03:02:59.777Z,4.00
2018-02-15T03:04:00.864Z,4.00
2018-02-15T03:05:01.994Z,4.00
2018-02-15T03:06:03.116Z,4.00
2018-02-15T03:07:04.209Z,4.10
2018-02-15T03:08:05.305Z,4.10
2018-02-15T03:09:06.414Z,4.10
2018-02-15T03:10:07.521Z,4.10
2018-02-15T03:11:08.659Z,4.10
2018-02-15T03:12:09.760Z,4.10
2018-02-15T03:13:12.168Z,4.10
2018-02-15T03:14:13.274Z,4.10
2018-02-15T03:15:14.364Z,4.10
2018-02-15T03:16:15.485Z,4.20
2018-02-15T03:17:16.603Z,4.20
2018-02-15T03:18:17.705Z,4.10
2018-02-15T03:19:18.808Z,4.20
2018-02-15T03:20:20.669Z,4.20
2018-02-15T03:21:21.776Z,4.20
2018-02-15T03:22:22.899Z,4.10
2018-02-15T03:23:24.000Z,4.10
2018-02-15T03:24:25.099Z,4.10
2018-02-15T03:25:26.209Z,4.10
2018-02-15T03:26:27.334Z,4.00
2018-02-15T03:27:28.462Z,4.00
2018-02-15T03:28:29.572Z,3.90
2018-02-15T03:29:30.688Z,3.90
2018-02-15T03:30:31.805Z,4.00
2018-02-15T03:31:32.912Z,3.80
2018-02-15T03:32:34.029Z,3.90
2018-02-15T03:33:35.172Z,3.90
2018-02-15T03:34:36.283Z,3.90
2018-02-15T03:35:37.389Z,3.90
2018-02-15T03:36:38.512Z,3.90
2018-02-15T03:37:39.630Z,3.90
2018-02-15T03:38:40.741Z,3.90
2018-02-15T03:39:41.865Z,3.90
2018-02-15T03:40:42.971Z,3.90
2018-02-15T03:41:44.100Z,3.90
2018-02-15T03:42:45.207Z,3.90
2018-02-15T03:43:46.320Z,3.90
2018-02-15T03:44:47.433Z,3.90
2018-02-15T03:45:48.503Z,3.90
2018-02-15T03:46:49.618Z,3.90
2018-02-15T03:47:50.818Z,3.90
2018-02-15T03:48:51.906Z,3.90
2018-02-15T03:49:53.004Z,3.90
2018-02-15T03:50:54.137Z,4.00
2018-02-15T03:51:55.247Z,4.00
2018-02-15T03:52:56.346Z,4.00
2018-02-15T03:53:57.438Z,4.00
2018-02-15T03:54:58.559Z,4.10
2018-02-15T03:55:59.644Z,4.00
2018-02-15T03:57:00.758Z,4.10
2018-02-15T03:58:02.587Z,4.00
2018-02-15T03:59:03.720Z,4.10
2018-02-15T04:00:04.825Z,4.00
2018-02-15T04:01:06.581Z,4.00
2018-02-15T04:02:07.704Z,4.00
2018-02-15T04:03:08.790Z,4.00
2018-02-15T04:04:09.916Z,4.00
2018-02-15T04:05:11.036Z,4.00
2018-02-15T04:06:12.136Z,4.00
2018-02-15T04:07:13.268Z,4.00
2018-02-15T04:08:14.342Z,4.00
2018-02-15T04:09:16.174Z,3.90
2018-02-15T04:10:17.259Z,3.90
2018-02-15T04:11:18.360Z,3.90
2018-02-15T04:12:19.466Z,3.90
2018-02-15T04:13:20.552Z,3.80
2018-02-15T04:14:21.653Z,3.90
2018-02-15T04:15:22.752Z,3.90
2018-02-15T04:16:23.859Z,3.80
2018-02-15T04:17:24.992Z,3.90
2018-02-15T04:18:26.072Z,3.80
2018-02-15T04:19:27.155Z,3.80
2018-02-15T04:20:28.249Z,3.80
2018-02-15T04:21:29.425Z,3.80
2018-02-15T04:22:30.520Z,3.80
2018-02-15T04:23:32.353Z,3.70
2018-02-15T04:24:33.449Z,3.80
2018-02-15T04:25:34.533Z,3.80
2018-02-15T04:26:36.382Z,3.80
2018-02-15T04:27:37.495Z,3.70
2018-02-15T04:28:38.608Z,3.80
2018-02-15T04:29:39.744Z,3.80
2018-02-15T04:30:40.832Z,3.80
2018-02-15T04:31:41.944Z,3.80
2018-02-15T04:32:43.775Z,3.70
2018-02-15T04:33:44.864Z,3.70
2018-02-15T04:34:45.976Z,3.70
2018-02-15T04:35:47.855Z,3.70
2018-02-15T04:36:48.972Z,3.90
2018-02-15T04:37:50.507Z,3.70
2018-02-15T04:38:51.672Z,3.70
2018-02-15T04:40:59.514Z,3.70
2018-02-15T04:42:01.187Z,3.90
2018-02-15T04:43:02.432Z,3.80
2018-02-15T04:44:03.565Z,3.80
2018-02-15T04:45:04.773Z,3.80
2018-02-15T04:46:05.905Z,3.80
2018-02-15T04:47:07.008Z,3.80
2018-02-15T04:48:08.217Z,3.90
2018-02-15T04:49:11.021Z,3.90
2018-02-15T04:50:12.125Z,3.90
2018-02-15T04:51:13.231Z,3.90
2018-02-15T04:52:14.410Z,3.90
2018-02-15T04:53:15.549Z,4.00
2018-02-15T04:54:16.705Z,4.00
2018-02-15T04:55:17.816Z,4.10
2018-02-15T04:56:18.942Z,4.20
2018-02-15T04:57:20.061Z,4.20
2018-02-15T04:58:21.181Z,4.30
2018-02-15T04:59:22.286Z,4.30
2018-02-15T05:00:23.375Z,4.30
2018-02-15T05:01:24.488Z,4.40
2018-02-15T05:02:25.624Z,4.40
2018-02-15T05:03:26.743Z,4.40
2018-02-15T05:04:27.977Z,4.60
2018-02-15T05:05:29.080Z,4.50
2018-02-15T05:06:30.200Z,4.50
2018-02-15T05:07:31.349Z,4.60
2018-02-15T05:08:32.475Z,4.60
2018-02-15T05:09:33.596Z,4.70
2018-02-15T05:10:34.724Z,4.70
2018-02-15T05:11:35.871Z,4.80
2018-02-15T05:12:37.741Z,4.80
2018-02-15T05:13:39.585Z,4.80
2018-02-15T05:14:40.689Z,4.80
2018-02-15T05:15:41.818Z,4.80
2018-02-15T05:16:42.924Z,4.70
2018-02-15T05:17:44.036Z,4.80
2018-02-15T05:18:45.142Z,4.80
2018-02-15T05:19:46.235Z,4.90
2018-02-15T05:20:47.386Z,4.90
2018-02-15T05:21:48.498Z,4.80
2018-02-15T05:22:49.654Z,4.90
2018-02-15T05:23:50.767Z,4.90
2018-02-15T05:24:52.033Z,4.90
2018-02-15T05:25:53.142Z,4.90
2018-02-15T05:26:54.257Z,4.80
2018-02-15T05:27:55.867Z,4.90
2018-02-15T05:28:57.308Z,4.80
2018-02-15T05:31:04.844Z,4.90
2018-02-15T05:32:06.507Z,4.90
2018-02-15T05:33:10.870Z,4.90
2018-02-15T05:34:12.503Z,4.90
2018-02-15T05:35:15.535Z,4.80
2018-02-15T05:36:17.282Z,4.90
2018-02-15T05:37:18.756Z,4.90
2018-02-15T05:38:20.592Z,4.80
2018-02-15T05:39:22.004Z,4.80
2018-02-15T05:40:23.127Z,4.90
2018-02-15T05:41:24.488Z,4.90
2018-02-15T05:42:25.872Z,4.90
2018-02-15T05:43:26.992Z,4.90
2018-02-15T05:44:29.221Z,4.90
2018-02-15T05:45:30.503Z,4.90
2018-02-15T05:46:31.841Z,4.90
2018-02-15T05:47:34.272Z,4.70
2018-02-15T05:48:35.454Z,4.80
2018-02-15T05:49:37.444Z,4.80
2018-02-15T05:50:40.355Z,4.80
2018-02-15T05:51:42.600Z,4.80
2018-02-15T05:52:44.665Z,4.80
2018-02-15T05:53:45.757Z,4.80
2018-02-15T05:54:47.151Z,4.80
2018-02-15T05:55:48.993Z,4.70
2018-02-15T05:56:51.702Z,4.80
2018-02-15T05:57:52.869Z,4.90
2018-02-15T05:58:53.996Z,4.90
2018-02-15T05:59:55.327Z,4.80
2018-02-15T06:00:56.517Z,4.80
2018-02-15T06:01:57.772Z,4.80
2018-02-15T06:02:58.902Z,4.80
2018-02-15T06:04:00.062Z,4.80
2018-02-15T06:05:01.963Z,4.80
2018-02-15T06:06:03.134Z,4.80
2018-02-15T06:07:04.223Z,4.80
2018-02-15T06:08:06.096Z,4.80
2018-02-15T06:09:07.592Z,4.80
2018-02-15T06:10:10.610Z,4.80
2018-02-15T06:11:11.964Z,4.80
2018-02-15T06:13:20.878Z,4.80
2018-02-15T06:14:25.709Z,4.80
2018-02-15T06:15:27.748Z,4.80
2018-02-15T06:16:29.111Z,4.80
2018-02-15T06:17:30.167Z,4.80
2018-02-15T06:18:31.239Z,4.80
2018-02-15T06:19:32.461Z,4.70
2018-02-15T06:20:33.579Z,4.80
2018-02-15T06:21:34.716Z,4.80
2018-02-15T06:22:35.932Z,4.80
2018-02-15T06:23:37.060Z,4.80
2018-02-15T06:24:38.195Z,4.80
2018-02-15T06:25:39.295Z,4.80
2018-02-15T06:26:41.146Z,4.70
2018-02-15T06:27:44.022Z,4.70
2018-02-15T06:28:46.627Z,4.70
2018-02-15T06:29:47.741Z,4.70
2018-02-15T06:30:48.922Z,4.70
2018-02-15T06:31:50.076Z,4.70
2018-02-15T06:32:51.199Z,4.60
2018-02-15T06:33:52.317Z,4.70
2018-02-15T06:34:54.356Z,4.70
2018-02-15T06:35:55.547Z,4.70
2018-02-15T06:36:56.836Z,4.70
2018-02-15T06:39:05.540Z,4.60
2018-02-15T06:40:06.712Z,4.60
2018-02-15T06:41:07.856Z,4.50
2018-02-15T06:42:08.983Z,4.60
2018-02-15T06:43:10.140Z,4.60
2018-02-15T06:44:11.311Z,4.60
2018-02-15T06:45:12.427Z,4.60
2018-02-15T06:46:13.532Z,4.60
2018-02-15T06:47:14.766Z,4.60
2018-02-15T06:48:15.908Z,4.60
2018-02-15T06:49:17.249Z,4.60
2018-02-15T06:51:24.372Z,4.60
2018-02-15T06:52:25.488Z,4.60
2018-02-15T06:53:26.584Z,4.60
2018-02-15T06:54:27.714Z,4.60
2018-02-15T06:56:36.629Z,4.50
2018-02-15T06:57:37.791Z,4.50
2018-02-15T06:58:38.884Z,4.50
2018-02-15T06:59:39.976Z,4.50
2018-02-15T07:00:41.180Z,4.40
2018-02-15T07:01:42.347Z,4.50
2018-02-15T07:02:43.439Z,4.40
2018-02-15T07:03:44.540Z,4.40
2018-02-15T07:04:45.761Z,4.40
2018-02-15T07:05:46.852Z,4.40
2018-02-15T07:06:47.950Z,4.40
2018-02-15T07:07:49.056Z,4.50
2018-02-15T07:08:50.176Z,4.50
2018-02-15T07:09:51.291Z,4.60
2018-02-15T07:10:52.413Z,4.60
2018-02-15T07:11:53.541Z,4.60
2018-02-15T07:12:54.775Z,4.60
2018-02-15T07:13:55.901Z,4.70
2018-02-15T07:14:57.029Z,4.70
2018-02-15T07:15:58.884Z,4.70
2018-02-15T07:17:00.748Z,4.70
2018-02-15T07:18:01.925Z,4.70
2018-02-15T07:19:03.055Z,4.70
2018-02-15T07:20:04.168Z,4.70
2018-02-15T07:21:05.298Z,4.70
2018-02-15T07:22:06.392Z,4.80
2018-02-15T07:23:08.287Z,4.70
2018-02-15T07:24:09.468Z,4.70
2018-02-15T07:25:10.600Z,4.70
2018-02-15T07:26:11.728Z,4.70
2018-02-15T07:27:12.836Z,4.50
2018-02-15T07:28:13.944Z,4.60
2018-02-15T07:29:15.075Z,4.60
2018-02-15T07:30:16.468Z,4.60
2018-02-15T07:31:17.644Z,4.60
2018-02-15T07:32:18.743Z,4.70
2018-02-15T07:33:20.431Z,4.70
2018-02-15T07:34:22.038Z,4.70
2018-02-15T07:35:23.344Z,4.70
2018-02-15T07:36:24.673Z,4.70
2018-02-15T07:37:26.025Z,4.70
2018-02-15T07:38:27.515Z,4.70
2018-02-15T07:39:28.640Z,4.70
2018-02-15T07:40:29.797Z,4.70
2018-02-15T07:41:31.209Z,4.70
2018-02-15T07:42:32.622Z,4.60
2018-02-15T07:43:33.861Z,4.60
2018-02-15T07:44:36.848Z,4.60
2018-02-15T07:45:39.125Z,4.60
2018-02-15T07:47:46.153Z,4.60
2018-02-15T07:48:47.981Z,4.60
2018-02-15T07:49:49.178Z,4.70
2018-02-15T07:50:51.284Z,4.60
2018-02-15T07:51:52.781Z,4.60
2018-02-15T07:52:54.136Z,4.60
2018-02-15T07:53:55.975Z,4.70
2018-02-15T07:54:57.160Z,4.70
2018-02-15T07:55:58.471Z,4.70
2018-02-15T07:56:59.656Z,4.70
2018-02-15T07:58:00.923Z,4.70
2018-02-15T07:59:02.230Z,4.70
2018-02-15T08:00:03.825Z,4.70
2018-02-15T08:01:05.032Z,4.70
2018-02-15T08:02:06.988Z,4.70
2018-02-15T08:03:08.848Z,4.70
2018-02-15T08:04:09.972Z,4.70
2018-02-15T08:05:11.820Z,4.60
2018-02-15T08:06:13.070Z,4.60
2018-02-15T08:07:14.281Z,4.60
2018-02-15T08:08:15.738Z,4.60
2018-02-15T08:09:17.784Z,4.50
2018-02-15T08:10:19.917Z,4.50
2018-02-15T08:11:22.118Z,4.60
2018-02-15T08:13:29.063Z,4.50
2018-02-15T08:14:30.198Z,4.50
2018-02-15T08:15:31.372Z,4.50
2018-02-15T08:16:32.605Z,4.50
2018-02-15T08:17:33.798Z,4.50
2018-02-15T08:18:34.948Z,4.50
2018-02-15T08:19:36.076Z,4.60
2018-02-15T08:20:37.965Z,4.60
2018-02-15T08:21:39.239Z,4.60
2018-02-15T08:22:41.047Z,4.70
2018-02-15T08:23:42.152Z,4.70
2018-02-15T08:24:44.000Z,4.70
2018-02-15T08:25:45.924Z,4.70
2018-02-15T08:26:47.020Z,4.70
2018-02-15T08:27:48.129Z,4.80
2018-02-15T08:28:49.229Z,4.80
2018-02-15T08:29:50.362Z,4.80
2018-02-15T08:30:51.497Z,4.90
2018-02-15T08:31:53.419Z,4.80
2018-02-15T08:32:54.664Z,4.80
2018-02-15T08:33:55.812Z,4.80
2018-02-15T08:34:56.928Z,4.90
2018-02-15T08:35:58.024Z,4.80
2018-02-15T08:36:59.071Z,4.70
2018-02-15T08:38:00.951Z,4.60
2018-02-15T08:39:02.064Z,4.60
2018-02-15T08:40:03.164Z,4.60
2018-02-15T08:41:04.256Z,4.50
2018-02-15T08:42:05.368Z,4.50
2018-02-15T08:43:06.447Z,4.50
2018-02-15T08:44:07.532Z,4.40
2018-02-15T08:45:08.663Z,4.40
2018-02-15T08:46:09.796Z,4.40
2018-02-15T08:47:10.944Z,4.40
2018-02-15T08:48:12.063Z,4.40
2018-02-15T08:49:13.209Z,4.40
2018-02-15T08:50:14.354Z,4.50
2018-02-15T08:51:15.460Z,4.40
2018-02-15T08:52:16.583Z,4.40
2018-02-15T08:53:17.651Z,4.40
2018-02-15T08:54:18.760Z,4.40
2018-02-15T08:55:19.852Z,4.40
2018-02-15T08:56:20.966Z,4.40
2018-02-15T08:57:22.117Z,4.40
2018-02-15T08:58:23.240Z,4.40
2018-02-15T08:59:24.400Z,4.40
2018-02-15T09:00:25.504Z,4.40
2018-02-15T09:01:27.330Z,4.40
2018-02-15T09:02:28.440Z,4.40
2018-02-15T09:03:29.523Z,4.30
2018-02-15T09:04:31.348Z,4.30
2018-02-15T09:05:32.448Z,4.30
2018-02-15T09:06:33.535Z,4.30
2018-02-15T09:07:35.367Z,4.30
2018-02-15T09:08:36.529Z,4.30
2018-02-15T09:09:38.351Z,4.20
2018-02-15T09:10:39.433Z,4.20
2018-02-15T09:11:40.539Z,4.20
2018-02-15T09:12:42.357Z,4.10
2018-02-15T09:13:43.471Z,4.10
2018-02-15T09:14:44.607Z,4.10
2018-02-15T09:15:45.691Z,4.10
2018-02-15T09:16:46.821Z,4.10
2018-02-15T09:17:48.646Z,4.10
2018-02-15T09:18:49.752Z,4.10
2018-02-15T09:19:50.857Z,4.00
2018-02-15T09:20:51.935Z,4.00
2018-02-15T09:21:53.100Z,4.00
2018-02-15T09:22:54.929Z,4.00
2018-02-15T09:23:56.271Z,4.00
2018-02-15T09:24:58.124Z,4.00
2018-02-15T09:25:59.242Z,4.00
2018-02-15T09:27:00.316Z,4.10
2018-02-15T09:28:01.379Z,4.00
2018-02-15T09:29:02.472Z,4.00
2018-02-15T09:30:04.272Z,4.00
2018-02-15T09:31:05.323Z,4.00
2018-02-15T09:32:06.445Z,4.10
2018-02-15T09:33:07.526Z,4.10
2018-02-15T09:34:08.628Z,4.20
2018-02-15T09:35:09.695Z,4.20
2018-02-15T09:36:10.866Z,4.40
2018-02-15T09:37:11.975Z,4.40
2018-02-15T09:38:13.081Z,4.40
2018-02-15T09:39:14.205Z,4.40
2018-02-15T09:40:15.610Z,4.50
2018-02-15T09:41:16.671Z,4.50
2018-02-15T09:42:17.718Z,4.60
2018-02-15T09:43:19.514Z,4.60
2018-02-15T09:44:20.594Z,4.60
2018-02-15T09:45:21.675Z,4.60
2018-02-15T09:46:22.779Z,4.50
2018-02-15T09:47:23.886Z,4.50
2018-02-15T09:48:24.899Z,4.50
2018-02-15T09:49:25.979Z,4.40
2018-02-15T09:50:27.036Z,4.40
2018-02-15T09:51:28.097Z,4.40
2018-02-15T09:52:29.182Z,4.40
2018-02-15T09:53:30.230Z,4.30
2018-02-15T09:54:31.291Z,4.20
2018-02-15T09:55:32.340Z,4.20
2018-02-15T09:56:33.399Z,4.30
2018-02-15T09:57:35.206Z,4.30
2018-02-15T09:58:36.259Z,4.30
2018-02-15T09:59:37.319Z,4.40
2018-02-15T10:00:38.362Z,4.40
2018-02-15T10:01:39.423Z,4.40
2018-02-15T10:02:40.502Z,4.50
2018-02-15T10:03:42.291Z,4.60
2018-02-15T10:04:43.363Z,4.60
2018-02-15T10:05:44.418Z,4.60
2018-02-15T10:06:45.500Z,4.60
2018-02-15T10:07:46.748Z,4.60
2018-02-15T10:08:47.822Z,4.60
2018-02-15T10:09:49.618Z,4.60
2018-02-15T10:10:50.688Z,4.60
2018-02-15T10:11:51.751Z,4.60
2018-02-15T10:12:52.861Z,4.70
2018-02-15T10:13:53.975Z,4.60
2018-02-15T10:14:55.847Z,4.70
2018-02-15T10:15:57.013Z,4.70
2018-02-15T10:16:58.916Z,4.70
2018-02-15T10:18:00.050Z,4.70
2018-02-15T10:19:01.924Z,4.80
2018-02-15T10:20:03.074Z,4.80
2018-02-15T10:21:04.935Z,4.80
2018-02-15T10:22:06.052Z,4.80
2018-02-15T10:23:07.152Z,4.90
2018-02-15T10:24:08.992Z,4.90
2018-02-15T10:25:10.124Z,4.90
2018-02-15T10:26:11.228Z,5.00
2018-02-15T10:27:12.432Z,5.00
2018-02-15T10:28:13.573Z,5.00
2018-02-15T10:29:14.676Z,4.80
2018-02-15T10:30:15.849Z,5.00
2018-02-15T10:31:16.989Z,5.10
2018-02-15T10:32:18.089Z,5.10
2018-02-15T10:33:19.220Z,5.20
2018-02-15T10:34:20.326Z,5.20
2018-02-15T10:35:22.200Z,5.20
2018-02-15T10:36:23.299Z,5.20
2018-02-15T10:37:24.428Z,5.00
2018-02-15T10:38:25.555Z,5.10
2018-02-15T10:39:26.660Z,5.10
2018-02-15T10:40:27.766Z,5.10
2018-02-15T10:41:28.916Z,5.20
2018-02-15T10:42:30.009Z,5.20
2018-02-15T10:43:31.109Z,5.20
2018-02-15T10:44:32.256Z,5.30
2018-02-15T10:45:33.375Z,5.30
2018-02-15T10:46:34.464Z,5.20
2018-02-15T10:47:35.630Z,5.20
2018-02-15T10:48:36.792Z,5.20
2018-02-15T10:49:37.920Z,5.10
2018-02-15T10:50:39.015Z,5.10
2018-02-15T10:51:40.135Z,5.10
2018-02-15T10:52:41.223Z,5.10
2018-02-15T10:53:42.343Z,5.20
2018-02-15T10:54:43.468Z,5.20
2018-02-15T10:55:44.584Z,5.30
2018-02-15T10:56:45.696Z,5.30
2018-02-15T10:57:46.851Z,5.40
2018-02-15T10:58:48.709Z,5.40
2018-02-15T10:59:49.904Z,5.40
2018-02-15T11:00:57.216Z,5.50
2018-02-15T11:02:04.470Z,5.50
2018-02-15T11:03:11.644Z,5.60
2018-02-15T11:04:18.960Z,5.60
2018-02-15T11:05:26.081Z,5.70
2018-02-15T11:06:27.992Z,5.70
2018-02-15T11:07:29.101Z,5.60
2018-02-15T11:08:30.216Z,5.60
2018-02-15T11:09:31.322Z,5.60
2018-02-15T11:10:32.460Z,5.70
2018-02-15T11:11:34.307Z,5.70
2018-02-15T11:12:35.451Z,5.70
2018-02-15T11:13:36.556Z,5.70
2018-02-15T11:14:37.696Z,5.80
2018-02-15T11:15:38.823Z,5.80
2018-02-15T11:16:39.908Z,5.80
2018-02-15T11:17:41.004Z,5.80
2018-02-15T11:18:42.121Z,5.90
2018-02-15T11:19:43.220Z,5.80
2018-02-15T11:20:44.344Z,5.90
2018-02-15T11:21:45.447Z,6.00
2018-02-15T11:22:47.314Z,6.00
2018-02-15T11:23:48.420Z,6.00
2018-02-15T11:24:50.322Z,6.00
2018-02-15T11:25:51.425Z,6.00
2018-02-15T11:26:52.533Z,6.00
2018-02-15T11:27:53.663Z,6.00
2018-02-15T11:28:54.894Z,6.00
2018-02-15T11:29:56.033Z,6.10
2018-02-15T11:30:57.306Z,6.00
2018-02-15T11:31:58.556Z,5.90
2018-02-15T11:32:59.702Z,6.10
2018-02-15T11:34:00.990Z,6.10
2018-02-15T11:35:02.840Z,6.10
2018-02-15T11:36:03.962Z,6.10
2018-02-15T11:37:05.116Z,6.10
2018-02-15T11:38:06.293Z,6.20
2018-02-15T11:39:07.434Z,6.20
2018-02-15T11:40:08.584Z,6.10
2018-02-15T11:41:09.726Z,6.10
2018-02-15T11:42:10.813Z,6.20
2018-02-15T11:43:11.912Z,6.00
2018-02-15T11:44:13.044Z,6.10
2018-02-15T11:45:14.161Z,6.20
2018-02-15T11:46:15.397Z,6.10
2018-02-15T11:47:17.369Z,6.30
2018-02-15T11:48:18.504Z,6.20
2018-02-15T11:49:20.360Z,6.30
2018-02-15T11:50:21.473Z,6.30
2018-02-15T11:51:22.631Z,6.40
2018-02-15T11:52:23.676Z,6.40
2018-02-15T11:53:24.808Z,6.40
2018-02-15T11:54:25.922Z,6.50
2018-02-15T11:55:27.037Z,6.50
2018-02-15T11:56:28.939Z,6.60
2018-02-15T11:57:30.036Z,6.50
2018-02-15T11:58:31.857Z,6.60
2018-02-15T11:59:32.960Z,6.50
2018-02-15T12:00:34.812Z,6.60
2018-02-15T12:01:35.920Z,6.60
2018-02-15T12:02:37.030Z,6.60
2018-02-15T12:03:38.891Z,6.60
2018-02-15T12:04:40.000Z,6.60
2018-02-15T12:05:41.103Z,6.60
2018-02-15T12:06:42.208Z,6.70
2018-02-15T12:07:43.310Z,6.70
2018-02-15T12:08:45.158Z,6.80
2018-02-15T12:09:46.276Z,6.80
2018-02-15T12:10:47.389Z,6.80
2018-02-15T12:11:48.520Z,6.80
2018-02-15T12:12:49.663Z,6.60
2018-02-15T12:13:50.781Z,6.80
2018-02-15T12:14:51.888Z,6.70
2018-02-15T12:15:53.005Z,6.90
2018-02-15T12:16:54.124Z,6.80
2018-02-15T12:17:55.985Z,6.90
2018-02-15T12:18:57.086Z,6.90
2018-02-15T12:19:58.221Z,7.00
2018-02-15T12:20:59.327Z,7.00
2018-02-15T12:22:00.439Z,6.90
2018-02-15T12:23:01.555Z,7.00
2018-02-15T12:24:03.382Z,7.00
2018-02-15T12:25:05.223Z,7.00
2018-02-15T12:26:06.312Z,7.00
2018-02-15T12:27:07.411Z,7.00
2018-02-15T12:28:08.533Z,7.00
2018-02-15T12:29:09.649Z,7.10
2018-02-15T12:30:10.772Z,7.10
2018-02-15T12:31:11.872Z,7.10
2018-02-15T12:32:12.992Z,7.10
2018-02-15T12:33:14.128Z,7.10
2018-02-15T12:34:15.230Z,7.10
2018-02-15T12:35:17.088Z,7.20
2018-02-15T12:36:18.218Z,7.10
2018-02-15T12:37:19.349Z,7.20
2018-02-15T12:38:20.501Z,7.30
2018-02-15T12:39:22.347Z,7.30
2018-02-15T12:40:24.186Z,7.30
2018-02-15T12:41:26.012Z,7.30
2018-02-15T12:42:27.201Z,7.30
2018-02-15T12:43:28.300Z,7.30
2018-02-15T12:44:30.180Z,7.30
2018-02-15T12:45:31.312Z,7.30
2018-02-15T12:46:32.432Z,7.30
2018-02-15T12:47:33.580Z,7.30
2018-02-15T12:48:34.711Z,7.30
2018-02-15T12:49:35.815Z,7.30
2018-02-15T12:50:36.928Z,7.30
2018-02-15T12:51:38.038Z,7.30
2018-02-15T12:52:39.172Z,7.30
2018-02-15T12:53:40.328Z,7.30
2018-02-15T12:54:41.412Z,7.40
2018-02-15T12:55:42.548Z,7.30
2018-02-15T12:56:44.594Z,7.30
2018-02-15T12:57:45.697Z,7.30
2018-02-15T12:58:47.552Z,7.30
2018-02-15T12:59:48.672Z,7.30
2018-02-15T13:00:49.770Z,7.20
2018-02-15T13:01:50.887Z,7.30
2018-02-15T13:02:52.000Z,7.30
2018-02-15T13:03:53.100Z,7.30
2018-02-15T13:04:54.233Z,7.40
2018-02-15T13:05:55.360Z,7.40
2018-02-15T13:06:56.480Z,7.40
2018-02-15T13:07:57.615Z,7.40
2018-02-15T13:08:58.753Z,7.50
2018-02-15T13:09:59.845Z,7.50
2018-02-15T13:11:00.936Z,7.50
2018-02-15T13:12:02.807Z,7.50
2018-02-15T13:13:16.325Z,7.50
2018-02-15T13:14:17.433Z,7.50
2018-02-15T13:15:30.808Z,7.50
2018-02-15T13:16:44.112Z,7.40
2018-02-15T13:17:45.181Z,7.40
2018-02-15T13:18:46.283Z,7.40
2018-02-15T13:19:59.723Z,7.40
2018-02-15T13:21:00.846Z,7.30
2018-02-15T13:22:02.746Z,7.20
2018-02-15T13:23:03.888Z,7.20
2018-02-15T13:24:04.992Z,6.90
2018-02-15T13:25:06.079Z,7.00
2018-02-15T13:26:07.944Z,7.10
2018-02-15T13:27:09.072Z,7.10
2018-02-15T13:28:22.507Z,7.10
2018-02-15T13:29:24.320Z,7.10
2018-02-15T13:30:25.437Z,7.00
2018-02-15T13:31:26.523Z,7.00
2018-02-15T13:32:27.624Z,7.00
2018-02-15T13:33:28.731Z,7.00
2018-02-15T13:34:29.857Z,7.00
2018-02-15T13:35:30.982Z,6.90
2018-02-15T13:36:32.076Z,6.90
2018-02-15T13:37:33.173Z,7.00
2018-02-15T13:38:34.289Z,7.00
2018-02-15T13:39:41.533Z,7.00
2018-02-15T13:40:43.377Z,7.00
2018-02-15T13:41:44.464Z,6.90
2018-02-15T13:42:45.570Z,6.90
2018-02-15T13:43:46.708Z,7.00
2018-02-15T13:44:47.835Z,7.00
2018-02-15T13:45:48.939Z,6.90